CO83 weather

Bulk Mail Center Heliport
Commerce City, Colorado, United States

Public forecast

Using degrees Fahrenheit for public forecast. Weather courtesy of forecast.io.

METAR (pilot weather report)

Closest report is Buckley Air Force Base, 9.1 nm (16.8 km) SE. Retrieved 2019/04/23 22:58 UTC (36 minutes ago):

KBKF 232258Z 07004KT 10SM FEW070 FEW250 19/04 A3002 RMK AO2A SLP123 T01890035

TAF (pilot weather forecast)

Forecast is more than 6 hours old.

Closest forecast is Buckley Air Force Base, 9.1 nm (16.8 km) SE. Retrieved 2019/04/23 17:06 UTC (6 hours ago):

TAF KBKF 231702Z 2317/2423 VRB06KT 9999 FEW010 BKN025 QNH3011INS TEMPO 2317/2319 SCT025 BECMG 2321/2322 01009KT 9999 FEW020 SCT050 QNH3004INS BECMG 2405/2406 22009KT 9999 SCT100 QNH3000INS BECMG 2415/2416 31009KT 9999 FEW250 QNH3004INS TX19/2322Z TN05/2412Z